sensor_id;sensor_type;location;lat;lon;timestamp;P1;durP1;ratioP1;P2;durP2;ratioP2
24102;SDS011;12278;53.058;9.028;2023-11-21T00:01:47;12.63;;;8.70;;
24102;SDS011;12278;53.058;9.028;2023-11-21T00:05:48;17.75;;;7.10;;
24102;SDS011;12278;53.058;9.028;2023-11-21T00:09:49;16.77;;;7.78;;
24102;SDS011;12278;53.058;9.028;2023-11-21T00:13:49;24.73;;;8.80;;
24102;SDS011;12278;53.058;9.028;2023-11-21T00:17:50;18.00;;;8.07;;
24102;SDS011;12278;53.058;9.028;2023-11-21T00:21:51;15.05;;;8.38;;
24102;SDS011;12278;53.058;9.028;2023-11-21T00:25:51;13.98;;;8.02;;
24102;SDS011;12278;53.058;9.028;2023-11-21T00:29:52;16.90;;;8.52;;
24102;SDS011;12278;53.058;9.028;2023-11-21T00:33:53;20.30;;;8.48;;
24102;SDS011;12278;53.058;9.028;2023-11-21T00:37:55;17.73;;;8.65;;
24102;SDS011;12278;53.058;9.028;2023-11-21T00:41:56;20.40;;;9.45;;
24102;SDS011;12278;53.058;9.028;2023-11-21T00:45:56;18.08;;;10.05;;
24102;SDS011;12278;53.058;9.028;2023-11-21T00:49:57;22.50;;;8.52;;
24102;SDS011;12278;53.058;9.028;2023-11-21T00:53:58;15.82;;;9.15;;
24102;SDS011;12278;53.058;9.028;2023-11-21T00:57:58;14.60;;;9.25;;
24102;SDS011;12278;53.058;9.028;2023-11-21T01:01:59;19.25;;;9.82;;
24102;SDS011;12278;53.058;9.028;2023-11-21T01:06:01;16.98;;;9.70;;
24102;SDS011;12278;53.058;9.028;2023-11-21T01:10:05;21.30;;;9.70;;
24102;SDS011;12278;53.058;9.028;2023-11-21T01:14:07;16.42;;;9.27;;
24102;SDS011;12278;53.058;9.028;2023-11-21T01:18:08;19.45;;;11.00;;
24102;SDS011;12278;53.058;9.028;2023-11-21T01:22:09;15.13;;;9.35;;
24102;SDS011;12278;53.058;9.028;2023-11-21T01:26:11;24.75;;;9.27;;
24102;SDS011;12278;53.058;9.028;2023-11-21T01:30:12;17.67;;;9.82;;
24102;SDS011;12278;53.058;9.028;2023-11-21T01:34:13;12.23;;;8.60;;
24102;SDS011;12278;53.058;9.028;2023-11-21T01:38:14;14.93;;;8.63;;
24102;SDS011;12278;53.058;9.028;2023-11-21T01:42:15;14.20;;;8.63;;
24102;SDS011;12278;53.058;9.028;2023-11-21T01:46:15;12.70;;;8.00;;
24102;SDS011;12278;53.058;9.028;2023-11-21T01:50:16;12.90;;;6.82;;
24102;SDS011;12278;53.058;9.028;2023-11-21T01:54:18;10.38;;;6.40;;
24102;SDS011;12278;53.058;9.028;2023-11-21T01:58:20;10.88;;;6.15;;
24102;SDS011;12278;53.058;9.028;2023-11-21T02:02:21;14.55;;;8.40;;
24102;SDS011;12278;53.058;9.028;2023-11-21T02:06:22;14.88;;;7.50;;
24102;SDS011;12278;53.058;9.028;2023-11-21T02:10:24;14.48;;;7.00;;
24102;SDS011;12278;53.058;9.028;2023-11-21T02:14:25;12.82;;;8.63;;
24102;SDS011;12278;53.058;9.028;2023-11-21T02:18:27;12.40;;;7.47;;
24102;SDS011;12278;53.058;9.028;2023-11-21T02:22:29;14.02;;;8.65;;
24102;SDS011;12278;53.058;9.028;2023-11-21T02:26:32;16.45;;;9.10;;
24102;SDS011;12278;53.058;9.028;2023-11-21T02:30:33;14.70;;;7.63;;
24102;SDS011;12278;53.058;9.028;2023-11-21T02:34:33;24.40;;;9.13;;
24102;SDS011;12278;53.058;9.028;2023-11-21T02:38:34;17.77;;;7.80;;
24102;SDS011;12278;53.058;9.028;2023-11-21T02:42:35;16.85;;;10.45;;
24102;SDS011;12278;53.058;9.028;2023-11-21T02:46:36;14.00;;;8.95;;
24102;SDS011;12278;53.058;9.028;2023-11-21T02:50:37;14.25;;;8.32;;
24102;SDS011;12278;53.058;9.028;2023-11-21T02:54:37;18.98;;;8.85;;
24102;SDS011;12278;53.058;9.028;2023-11-21T02:58:42;15.02;;;8.63;;
24102;SDS011;12278;53.058;9.028;2023-11-21T03:02:44;13.30;;;8.25;;
24102;SDS011;12278;53.058;9.028;2023-11-21T03:06:47;15.27;;;7.35;;
24102;SDS011;12278;53.058;9.028;2023-11-21T03:10:48;12.85;;;7.82;;
24102;SDS011;12278;53.058;9.028;2023-11-21T03:14:49;16.05;;;7.95;;
24102;SDS011;12278;53.058;9.028;2023-11-21T03:18:49;13.90;;;7.00;;
24102;SDS011;12278;53.058;9.028;2023-11-21T03:22:50;11.60;;;7.22;;
24102;SDS011;12278;53.058;9.028;2023-11-21T03:26:51;11.93;;;6.35;;
24102;SDS011;12278;53.058;9.028;2023-11-21T03:30:52;10.88;;;6.80;;
24102;SDS011;12278;53.058;9.028;2023-11-21T03:34:54;10.27;;;6.22;;
24102;SDS011;12278;53.058;9.028;2023-11-21T03:38:56;8.45;;;4.95;;
24102;SDS011;12278;53.058;9.028;2023-11-21T03:42:57;9.43;;;4.53;;
24102;SDS011;12278;53.058;9.028;2023-11-21T03:46:57;6.28;;;4.00;;
24102;SDS011;12278;53.058;9.028;2023-11-21T03:50:58;8.55;;;5.43;;
24102;SDS011;12278;53.058;9.028;2023-11-21T03:54:58;6.00;;;3.35;;
24102;SDS011;12278;53.058;9.028;2023-11-21T03:58:59;7.13;;;3.53;;
24102;SDS011;12278;53.058;9.028;2023-11-21T04:03:00;5.57;;;3.70;;
24102;SDS011;12278;53.058;9.028;2023-11-21T04:07:00;5.82;;;4.05;;
24102;SDS011;12278;53.058;9.028;2023-11-21T04:11:01;6.75;;;4.55;;
24102;SDS011;12278;53.058;9.028;2023-11-21T04:15:02;9.45;;;4.25;;
24102;SDS011;12278;53.058;9.028;2023-11-21T04:19:03;7.35;;;4.43;;
24102;SDS011;12278;53.058;9.028;2023-11-21T04:23:04;7.57;;;4.20;;
24102;SDS011;12278;53.058;9.028;2023-11-21T04:27:04;7.28;;;4.45;;
24102;SDS011;12278;53.058;9.028;2023-11-21T04:31:05;8.05;;;4.75;;
24102;SDS011;12278;53.058;9.028;2023-11-21T04:35:07;6.70;;;5.20;;
24102;SDS011;12278;53.058;9.028;2023-11-21T04:39:11;7.22;;;5.30;;
24102;SDS011;12278;53.058;9.028;2023-11-21T04:43:12;7.50;;;5.72;;
24102;SDS011;12278;53.058;9.028;2023-11-21T04:47:12;7.80;;;5.25;;
24102;SDS011;12278;53.058;9.028;2023-11-21T04:51:13;7.53;;;5.63;;
24102;SDS011;12278;53.058;9.028;2023-11-21T04:55:14;12.02;;;6.65;;
24102;SDS011;12278;53.058;9.028;2023-11-21T04:59:15;9.50;;;5.97;;
24102;SDS011;12278;53.058;9.028;2023-11-21T05:03:16;8.90;;;6.40;;
24102;SDS011;12278;53.058;9.028;2023-11-21T05:07:16;7.90;;;6.68;;
24102;SDS011;12278;53.058;9.028;2023-11-21T05:11:24;11.88;;;6.05;;
24102;SDS011;12278;53.058;9.028;2023-11-21T05:15:28;9.63;;;5.90;;
24102;SDS011;12278;53.058;9.028;2023-11-21T05:19:29;10.30;;;6.35;;
24102;SDS011;12278;53.058;9.028;2023-11-21T05:23:30;9.10;;;6.25;;
24102;SDS011;12278;53.058;9.028;2023-11-21T05:27:30;8.77;;;5.72;;
24102;SDS011;12278;53.058;9.028;2023-11-21T05:31:31;8.15;;;5.25;;
24102;SDS011;12278;53.058;9.028;2023-11-21T05:35:32;11.02;;;6.53;;
24102;SDS011;12278;53.058;9.028;2023-11-21T05:39:32;10.38;;;6.00;;
24102;SDS011;12278;53.058;9.028;2023-11-21T05:43:33;7.93;;;4.60;;
24102;SDS011;12278;53.058;9.028;2023-11-21T05:47:39;10.00;;;5.03;;
24102;SDS011;12278;53.058;9.028;2023-11-21T05:51:41;4.88;;;3.75;;
24102;SDS011;12278;53.058;9.028;2023-11-21T05:55:42;9.73;;;4.55;;
24102;SDS011;12278;53.058;9.028;2023-11-21T05:59:43;6.75;;;4.55;;
24102;SDS011;12278;53.058;9.028;2023-11-21T06:03:43;5.28;;;3.83;;
24102;SDS011;12278;53.058;9.028;2023-11-21T06:07:45;6.93;;;4.88;;
24102;SDS011;12278;53.058;9.028;2023-11-21T06:11:46;6.18;;;4.90;;
24102;SDS011;12278;53.058;9.028;2023-11-21T06:15:46;6.35;;;4.38;;
24102;SDS011;12278;53.058;9.028;2023-11-21T06:19:47;6.60;;;4.47;;
24102;SDS011;12278;53.058;9.028;2023-11-21T06:23:48;6.90;;;5.13;;
24102;SDS011;12278;53.058;9.028;2023-11-21T06:27:49;6.18;;;4.45;;
24102;SDS011;12278;53.058;9.028;2023-11-21T06:31:51;8.18;;;4.85;;
24102;SDS011;12278;53.058;9.028;2023-11-21T06:35:54;8.45;;;5.47;;
24102;SDS011;12278;53.058;9.028;2023-11-21T06:39:55;11.77;;;7.03;;
24102;SDS011;12278;53.058;9.028;2023-11-21T06:43:58;8.18;;;5.90;;
24102;SDS011;12278;53.058;9.028;2023-11-21T06:47:59;6.22;;;4.85;;
24102;SDS011;12278;53.058;9.028;2023-11-21T06:51:59;6.97;;;5.50;;
24102;SDS011;12278;53.058;9.028;2023-11-21T06:56:02;6.18;;;5.07;;
24102;SDS011;12278;53.058;9.028;2023-11-21T07:00:04;6.47;;;5.30;;
24102;SDS011;12278;53.058;9.028;2023-11-21T07:04:06;9.30;;;5.20;;
24102;SDS011;12278;53.058;9.028;2023-11-21T07:08:07;6.40;;;5.05;;
24102;SDS011;12278;53.058;9.028;2023-11-21T07:12:07;8.45;;;5.30;;
24102;SDS011;12278;53.058;9.028;2023-11-21T07:16:08;10.80;;;5.93;;
24102;SDS011;12278;53.058;9.028;2023-11-21T07:20:10;9.35;;;5.10;;
24102;SDS011;12278;53.058;9.028;2023-11-21T07:24:11;7.65;;;4.82;;
24102;SDS011;12278;53.058;9.028;2023-11-21T07:28:11;8.55;;;5.47;;
24102;SDS011;12278;53.058;9.028;2023-11-21T07:32:12;8.52;;;5.88;;
24102;SDS011;12278;53.058;9.028;2023-11-21T07:36:14;9.15;;;5.13;;
24102;SDS011;12278;53.058;9.028;2023-11-21T07:40:15;6.68;;;4.40;;
24102;SDS011;12278;53.058;9.028;2023-11-21T07:44:17;6.68;;;5.13;;
24102;SDS011;12278;53.058;9.028;2023-11-21T07:48:17;8.00;;;6.05;;
24102;SDS011;12278;53.058;9.028;2023-11-21T07:52:18;7.80;;;4.35;;
24102;SDS011;12278;53.058;9.028;2023-11-21T07:56:21;9.43;;;5.15;;
24102;SDS011;12278;53.058;9.028;2023-11-21T08:00:22;7.22;;;4.95;;
24102;SDS011;12278;53.058;9.028;2023-11-21T08:04:24;8.10;;;5.28;;
24102;SDS011;12278;53.058;9.028;2023-11-21T08:08:24;7.32;;;5.35;;
24102;SDS011;12278;53.058;9.028;2023-11-21T08:12:25;8.50;;;4.93;;
24102;SDS011;12278;53.058;9.028;2023-11-21T08:16:27;6.93;;;4.82;;
24102;SDS011;12278;53.058;9.028;2023-11-21T08:20:28;6.10;;;5.00;;
24102;SDS011;12278;53.058;9.028;2023-11-21T08:24:29;8.60;;;5.20;;
24102;SDS011;12278;53.058;9.028;2023-11-21T08:28:29;8.25;;;5.15;;
24102;SDS011;12278;53.058;9.028;2023-11-21T08:32:30;7.55;;;4.53;;
24102;SDS011;12278;53.058;9.028;2023-11-21T08:36:33;7.20;;;4.25;;
24102;SDS011;12278;53.058;9.028;2023-11-21T08:40:34;8.65;;;5.65;;
24102;SDS011;12278;53.058;9.028;2023-11-21T08:44:35;6.70;;;4.20;;
24102;SDS011;12278;53.058;9.028;2023-11-21T08:48:36;7.57;;;5.05;;
24102;SDS011;12278;53.058;9.028;2023-11-21T08:52:37;8.35;;;5.60;;
24102;SDS011;12278;53.058;9.028;2023-11-21T08:56:38;6.40;;;4.72;;
24102;SDS011;12278;53.058;9.028;2023-11-21T09:00:39;7.60;;;5.15;;
24102;SDS011;12278;53.058;9.028;2023-11-21T09:04:40;7.18;;;4.55;;
24102;SDS011;12278;53.058;9.028;2023-11-21T09:08:41;6.40;;;5.28;;
24102;SDS011;12278;53.058;9.028;2023-11-21T09:12:42;6.93;;;5.45;;
24102;SDS011;12278;53.058;9.028;2023-11-21T09:16:43;8.75;;;4.95;;
24102;SDS011;12278;53.058;9.028;2023-11-21T09:20:43;7.38;;;4.85;;
24102;SDS011;12278;53.058;9.028;2023-11-21T09:24:44;7.07;;;4.78;;
24102;SDS011;12278;53.058;9.028;2023-11-21T09:28:45;6.03;;;4.43;;
24102;SDS011;12278;53.058;9.028;2023-11-21T09:32:47;6.18;;;4.65;;
24102;SDS011;12278;53.058;9.028;2023-11-21T09:36:47;6.20;;;4.20;;
24102;SDS011;12278;53.058;9.028;2023-11-21T09:40:48;6.70;;;4.90;;
24102;SDS011;12278;53.058;9.028;2023-11-21T09:49:01;7.57;;;4.65;;
24102;SDS011;12278;53.058;9.028;2023-11-21T09:57:14;6.85;;;4.10;;
24102;SDS011;12278;53.058;9.028;2023-11-21T10:01:15;6.47;;;4.15;;
24102;SDS011;12278;53.058;9.028;2023-11-21T10:05:17;7.07;;;4.53;;
24102;SDS011;12278;53.058;9.028;2023-11-21T10:09:22;6.82;;;4.13;;
24102;SDS011;12278;53.058;9.028;2023-11-21T10:13:24;7.75;;;5.28;;
24102;SDS011;12278;53.058;9.028;2023-11-21T10:17:27;5.82;;;4.15;;
24102;SDS011;12278;53.058;9.028;2023-11-21T10:21:37;5.43;;;4.43;;
24102;SDS011;12278;53.058;9.028;2023-11-21T10:25:39;6.07;;;3.97;;
24102;SDS011;12278;53.058;9.028;2023-11-21T10:29:39;5.75;;;4.15;;
24102;SDS011;12278;53.058;9.028;2023-11-21T10:33:41;7.45;;;4.07;;
24102;SDS011;12278;53.058;9.028;2023-11-21T10:37:43;16.73;;;4.30;;
24102;SDS011;12278;53.058;9.028;2023-11-21T10:41:47;7.78;;;4.90;;
24102;SDS011;12278;53.058;9.028;2023-11-21T10:45:47;5.20;;;3.70;;
24102;SDS011;12278;53.058;9.028;2023-11-21T10:49:48;6.45;;;4.65;;
24102;SDS011;12278;53.058;9.028;2023-11-21T10:53:51;6.40;;;4.78;;
24102;SDS011;12278;53.058;9.028;2023-11-21T10:57:52;9.50;;;5.00;;
24102;SDS011;12278;53.058;9.028;2023-11-21T11:01:54;6.65;;;4.40;;
24102;SDS011;12278;53.058;9.028;2023-11-21T11:05:58;7.43;;;5.63;;
24102;SDS011;12278;53.058;9.028;2023-11-21T11:10:00;6.28;;;5.03;;
24102;SDS011;12278;53.058;9.028;2023-11-21T11:14:01;7.93;;;4.93;;
24102;SDS011;12278;53.058;9.028;2023-11-21T11:18:03;8.95;;;6.22;;
24102;SDS011;12278;53.058;9.028;2023-11-21T11:22:19;6.25;;;4.95;;
24102;SDS011;12278;53.058;9.028;2023-11-21T11:26:32;8.05;;;4.53;;
24102;SDS011;12278;53.058;9.028;2023-11-21T11:39:27;5.63;;;4.50;;
24102;SDS011;12278;53.058;9.028;2023-11-21T11:43:45;6.68;;;4.13;;
24102;SDS011;12278;53.058;9.028;2023-11-21T11:47:45;5.78;;;4.22;;
24102;SDS011;12278;53.058;9.028;2023-11-21T11:51:48;8.65;;;4.28;;
24102;SDS011;12278;53.058;9.028;2023-11-21T11:55:53;4.75;;;3.53;;
24102;SDS011;12278;53.058;9.028;2023-11-21T12:04:24;4.80;;;4.22;;
24102;SDS011;12278;53.058;9.028;2023-11-21T12:08:34;6.20;;;4.45;;
24102;SDS011;12278;53.058;9.028;2023-11-21T12:12:35;6.18;;;4.15;;
24102;SDS011;12278;53.058;9.028;2023-11-21T12:16:36;5.03;;;3.60;;
24102;SDS011;12278;53.058;9.028;2023-11-21T12:20:37;4.53;;;3.72;;
24102;SDS011;12278;53.058;9.028;2023-11-21T12:24:42;5.63;;;3.58;;
24102;SDS011;12278;53.058;9.028;2023-11-21T12:28:43;4.43;;;4.03;;
24102;SDS011;12278;53.058;9.028;2023-11-21T12:32:44;6.47;;;4.10;;
24102;SDS011;12278;53.058;9.028;2023-11-21T12:36:48;4.47;;;3.83;;
24102;SDS011;12278;53.058;9.028;2023-11-21T12:40:49;4.57;;;3.60;;
24102;SDS011;12278;53.058;9.028;2023-11-21T12:45:06;7.18;;;3.85;;
24102;SDS011;12278;53.058;9.028;2023-11-21T12:49:18;5.05;;;3.58;;
24102;SDS011;12278;53.058;9.028;2023-11-21T12:53:19;4.43;;;2.88;;
24102;SDS011;12278;53.058;9.028;2023-11-21T12:57:19;3.22;;;2.92;;
24102;SDS011;12278;53.058;9.028;2023-11-21T13:01:20;3.20;;;2.92;;
24102;SDS011;12278;53.058;9.028;2023-11-21T13:05:23;2.80;;;2.53;;
24102;SDS011;12278;53.058;9.028;2023-11-21T13:09:28;2.38;;;2.00;;
24102;SDS011;12278;53.058;9.028;2023-11-21T13:13:29;4.55;;;2.53;;
24102;SDS011;12278;53.058;9.028;2023-11-21T13:17:29;3.75;;;2.80;;
24102;SDS011;12278;53.058;9.028;2023-11-21T13:21:30;5.13;;;2.72;;
24102;SDS011;12278;53.058;9.028;2023-11-21T13:25:31;2.35;;;2.10;;
24102;SDS011;12278;53.058;9.028;2023-11-21T13:29:31;2.85;;;2.28;;
24102;SDS011;12278;53.058;9.028;2023-11-21T13:33:32;3.03;;;2.22;;
24102;SDS011;12278;53.058;9.028;2023-11-21T13:37:33;2.75;;;2.30;;
24102;SDS011;12278;53.058;9.028;2023-11-21T13:41:34;2.53;;;2.20;;
24102;SDS011;12278;53.058;9.028;2023-11-21T13:45:38;2.58;;;2.35;;
24102;SDS011;12278;53.058;9.028;2023-11-21T13:49:40;3.15;;;2.17;;
24102;SDS011;12278;53.058;9.028;2023-11-21T13:53:42;3.25;;;2.08;;
24102;SDS011;12278;53.058;9.028;2023-11-21T13:57:50;2.88;;;2.40;;
24102;SDS011;12278;53.058;9.028;2023-11-21T14:01:52;2.45;;;2.25;;
24102;SDS011;12278;53.058;9.028;2023-11-21T14:05:53;3.83;;;2.70;;
24102;SDS011;12278;53.058;9.028;2023-11-21T14:09:56;4.43;;;1.98;;
24102;SDS011;12278;53.058;9.028;2023-11-21T14:13:58;3.13;;;2.28;;
24102;SDS011;12278;53.058;9.028;2023-11-21T14:17:59;3.17;;;2.35;;
24102;SDS011;12278;53.058;9.028;2023-11-21T14:22:02;2.20;;;2.00;;
24102;SDS011;12278;53.058;9.028;2023-11-21T14:26:03;1.90;;;1.80;;
24102;SDS011;12278;53.058;9.028;2023-11-21T14:30:04;2.67;;;2.25;;
24102;SDS011;12278;53.058;9.028;2023-11-21T14:34:05;2.42;;;2.22;;
24102;SDS011;12278;53.058;9.028;2023-11-21T14:38:07;4.40;;;2.40;;
24102;SDS011;12278;53.058;9.028;2023-11-21T14:42:07;2.40;;;2.20;;
24102;SDS011;12278;53.058;9.028;2023-11-21T14:46:08;3.05;;;2.40;;
24102;SDS011;12278;53.058;9.028;2023-11-21T14:50:10;3.92;;;1.95;;
24102;SDS011;12278;53.058;9.028;2023-11-21T14:54:29;3.20;;;2.13;;
24102;SDS011;12278;53.058;9.028;2023-11-21T14:58:40;3.67;;;2.60;;
24102;SDS011;12278;53.058;9.028;2023-11-21T15:02:40;3.60;;;2.45;;
24102;SDS011;12278;53.058;9.028;2023-11-21T15:06:50;2.80;;;2.40;;
24102;SDS011;12278;53.058;9.028;2023-11-21T15:10:53;3.15;;;2.83;;
24102;SDS011;12278;53.058;9.028;2023-11-21T15:14:54;3.25;;;2.80;;
24102;SDS011;12278;53.058;9.028;2023-11-21T15:18:57;3.45;;;2.30;;
24102;SDS011;12278;53.058;9.028;2023-11-21T15:22:58;2.88;;;2.58;;
24102;SDS011;12278;53.058;9.028;2023-11-21T15:26:58;5.10;;;3.72;;
24102;SDS011;12278;53.058;9.028;2023-11-21T15:30:59;3.95;;;3.40;;
24102;SDS011;12278;53.058;9.028;2023-11-21T15:35:01;2.58;;;2.35;;
24102;SDS011;12278;53.058;9.028;2023-11-21T15:39:01;3.75;;;2.90;;
24102;SDS011;12278;53.058;9.028;2023-11-21T15:43:02;3.40;;;2.63;;
24102;SDS011;12278;53.058;9.028;2023-11-21T15:47:03;3.50;;;2.35;;
24102;SDS011;12278;53.058;9.028;2023-11-21T17:55:41;3.10;;;2.80;;
24102;SDS011;12278;53.058;9.028;2023-11-21T17:59:43;2.83;;;2.47;;
24102;SDS011;12278;53.058;9.028;2023-11-21T18:03:50;3.17;;;2.87;;
24102;SDS011;12278;53.058;9.028;2023-11-21T18:07:51;2.60;;;1.97;;
24102;SDS011;12278;53.058;9.028;2023-11-21T18:11:52;2.73;;;2.00;;
24102;SDS011;12278;53.058;9.028;2023-11-21T18:15:52;2.90;;;1.97;;
24102;SDS011;12278;53.058;9.028;2023-11-21T18:19:54;2.00;;;1.67;;
24102;SDS011;12278;53.058;9.028;2023-11-21T18:23:54;3.43;;;2.37;;
24102;SDS011;12278;53.058;9.028;2023-11-21T18:27:55;2.80;;;2.17;;
24102;SDS011;12278;53.058;9.028;2023-11-21T18:31:56;3.90;;;2.60;;
24102;SDS011;12278;53.058;9.028;2023-11-21T18:35:56;4.13;;;2.60;;
24102;SDS011;12278;53.058;9.028;2023-11-21T18:39:57;3.27;;;2.77;;
24102;SDS011;12278;53.058;9.028;2023-11-21T18:43:58;2.83;;;2.50;;
24102;SDS011;12278;53.058;9.028;2023-11-21T18:47:58;5.27;;;3.17;;
24102;SDS011;12278;53.058;9.028;2023-11-21T18:51:59;3.95;;;3.35;;
24102;SDS011;12278;53.058;9.028;2023-11-21T18:56:01;3.13;;;2.50;;
24102;SDS011;12278;53.058;9.028;2023-11-21T19:00:01;4.00;;;3.17;;
24102;SDS011;12278;53.058;9.028;2023-11-21T19:04:04;4.10;;;2.63;;
24102;SDS011;12278;53.058;9.028;2023-11-21T19:08:05;3.30;;;2.57;;
24102;SDS011;12278;53.058;9.028;2023-11-21T19:12:05;3.93;;;2.53;;
24102;SDS011;12278;53.058;9.028;2023-11-21T19:16:07;3.40;;;2.50;;
24102;SDS011;12278;53.058;9.028;2023-11-21T19:20:07;3.87;;;3.17;;
24102;SDS011;12278;53.058;9.028;2023-11-21T19:24:08;3.60;;;2.50;;
24102;SDS011;12278;53.058;9.028;2023-11-21T19:28:09;5.63;;;3.00;;
24102;SDS011;12278;53.058;9.028;2023-11-21T19:32:09;3.13;;;2.83;;
24102;SDS011;12278;53.058;9.028;2023-11-21T19:36:10;4.80;;;3.10;;
24102;SDS011;12278;53.058;9.028;2023-11-21T19:40:11;5.53;;;3.07;;
24102;SDS011;12278;53.058;9.028;2023-11-21T19:44:12;2.87;;;2.50;;
24102;SDS011;12278;53.058;9.028;2023-11-21T19:48:13;7.67;;;4.43;;
24102;SDS011;12278;53.058;9.028;2023-11-21T19:52:14;5.30;;;3.40;;
24102;SDS011;12278;53.058;9.028;2023-11-21T19:56:14;4.83;;;3.10;;
24102;SDS011;12278;53.058;9.028;2023-11-21T20:00:15;5.00;;;3.20;;
24102;SDS011;12278;53.058;9.028;2023-11-21T20:04:16;4.57;;;3.20;;
24102;SDS011;12278;53.058;9.028;2023-11-21T20:08:17;3.63;;;3.20;;
24102;SDS011;12278;53.058;9.028;2023-11-21T20:12:18;4.27;;;3.50;;
24102;SDS011;12278;53.058;9.028;2023-11-21T20:16:18;5.03;;;3.37;;
24102;SDS011;12278;53.058;9.028;2023-11-21T20:20:19;4.50;;;3.20;;
24102;SDS011;12278;53.058;9.028;2023-11-21T20:36:24;5.40;;;3.57;;
24102;SDS011;12278;53.058;9.028;2023-11-21T20:40:24;4.77;;;2.97;;
24102;SDS011;12278;53.058;9.028;2023-11-21T21:40:39;3.87;;;2.67;;
24102;SDS011;12278;53.058;9.028;2023-11-21T21:44:39;4.40;;;3.40;;
24102;SDS011;12278;53.058;9.028;2023-11-21T21:48:40;4.27;;;3.40;;
24102;SDS011;12278;53.058;9.028;2023-11-21T21:52:41;4.73;;;3.37;;
24102;SDS011;12278;53.058;9.028;2023-11-21T21:56:42;3.50;;;2.90;;
24102;SDS011;12278;53.058;9.028;2023-11-21T22:00:42;6.13;;;3.20;;
24102;SDS011;12278;53.058;9.028;2023-11-21T22:04:43;4.40;;;3.37;;
24102;SDS011;12278;53.058;9.028;2023-11-21T22:08:43;4.80;;;3.13;;
24102;SDS011;12278;53.058;9.028;2023-11-21T22:12:44;7.20;;;3.30;;
24102;SDS011;12278;53.058;9.028;2023-11-21T22:16:45;3.97;;;2.67;;
24102;SDS011;12278;53.058;9.028;2023-11-21T22:20:45;4.37;;;3.13;;
24102;SDS011;12278;53.058;9.028;2023-11-21T22:24:46;3.60;;;2.80;;
24102;SDS011;12278;53.058;9.028;2023-11-21T22:28:46;5.07;;;3.53;;
24102;SDS011;12278;53.058;9.028;2023-11-21T22:32:47;6.03;;;3.53;;
24102;SDS011;12278;53.058;9.028;2023-11-21T22:36:47;6.63;;;3.30;;
24102;SDS011;12278;53.058;9.028;2023-11-21T22:40:48;5.50;;;3.30;;
24102;SDS011;12278;53.058;9.028;2023-11-21T22:44:49;4.23;;;3.00;;
24102;SDS011;12278;53.058;9.028;2023-11-21T22:48:49;4.50;;;3.57;;
24102;SDS011;12278;53.058;9.028;2023-11-21T22:52:50;3.53;;;3.10;;
24102;SDS011;12278;53.058;9.028;2023-11-21T22:56:52;3.67;;;3.13;;
24102;SDS011;12278;53.058;9.028;2023-11-21T23:00:53;4.67;;;3.43;;
24102;SDS011;12278;53.058;9.028;2023-11-21T23:04:57;3.63;;;3.10;;
24102;SDS011;12278;53.058;9.028;2023-11-21T23:08:57;4.87;;;3.67;;
24102;SDS011;12278;53.058;9.028;2023-11-21T23:12:58;5.40;;;4.20;;
24102;SDS011;12278;53.058;9.028;2023-11-21T23:16:59;5.90;;;3.37;;
24102;SDS011;12278;53.058;9.028;2023-11-21T23:20:59;5.27;;;3.40;;
24102;SDS011;12278;53.058;9.028;2023-11-21T23:25:00;4.60;;;3.20;;
24102;SDS011;12278;53.058;9.028;2023-11-21T23:29:01;5.20;;;3.03;;
24102;SDS011;12278;53.058;9.028;2023-11-21T23:33:02;4.50;;;3.43;;
24102;SDS011;12278;53.058;9.028;2023-11-21T23:37:03;4.13;;;3.40;;
24102;SDS011;12278;53.058;9.028;2023-11-21T23:41:04;5.27;;;3.60;;
24102;SDS011;12278;53.058;9.028;2023-11-21T23:45:04;6.33;;;4.03;;
24102;SDS011;12278;53.058;9.028;2023-11-21T23:49:05;4.43;;;2.93;;
24102;SDS011;12278;53.058;9.028;2023-11-21T23:53:07;6.43;;;3.77;;
24102;SDS011;12278;53.058;9.028;2023-11-21T23:57:07;5.80;;;3.50;;
